DLH127 LFRN-EDDF
Flight info
| Callsign | DLH127 |
|---|---|
| Flight time | 1h 18m |
| Altitude | 32000 |
| Route | TABIL DCT OBATO UM163 TSU UN858 VALEK/N0461F310 UM163 DIK T856 NIVNU/N0419F230 T847 IMCOM IMCOM1B |
| Aircraft | B738/M-SDE2E3FGHIRWXY/LB1 |
Departure
| Time | 2026-05-05 13:06 |
|---|---|
| Airport | Rennes-Saint-Jacques Airport (LFRN) |
Arrival
| Time | 2026-05-05 14:24 |
|---|---|
| Airport | Frankfurt Main Airport (EDDF) |
| Time | Latitude | Longitude | Altitude | Speed | Heading |
|---|---|---|---|---|---|
| 2026-05-05 12:53 | 48.06894 | -1.72565 | 120 ft | 0 kts | 224° |
| 2026-05-05 13:01 | 48.06895 | -1.72565 | 120 ft | 2 kts | 224° |
| 2026-05-05 13:01 | 48.06907 | -1.72548 | 115 ft | 2 kts | 225° |
| 2026-05-05 13:01 | 48.06918 | -1.72530 | 115 ft | 2 kts | 226° |
| 2026-05-05 13:02 | 48.06930 | -1.72512 | 115 ft | 2 kts | 229° |
| 2026-05-05 13:02 | 48.06940 | -1.72493 | 115 ft | 2 kts | 239° |
| 2026-05-05 13:02 | 48.06945 | -1.72469 | 115 ft | 2 kts | 275° |
| 2026-05-05 13:02 | 48.06944 | -1.72458 | 115 ft | 1 kts | 282° |
| 2026-05-05 13:04 | 48.06943 | -1.72467 | 120 ft | 5 kts | 256° |
| 2026-05-05 13:04 | 48.06895 | -1.72497 | 120 ft | 11 kts | 174° |
| 2026-05-05 13:04 | 48.06886 | -1.72360 | 118 ft | 20 kts | 61° |
| 2026-05-05 13:04 | 48.06934 | -1.72187 | 123 ft | 3 kts | 75° |
| 2026-05-05 13:05 | 48.06942 | -1.72166 | 120 ft | 8 kts | 55° |
| 2026-05-05 13:05 | 48.07017 | -1.72111 | 123 ft | 14 kts | 1° |
| 2026-05-05 13:06 | 48.07071 | -1.72266 | 120 ft | 41 kts | 282° |
| 2026-05-05 13:06 | 48.07187 | -1.73182 | 107 ft | 135 kts | 280° |
| 2026-05-05 13:06 | 48.07461 | -1.74864 | 475 ft | 184 kts | 286° |
| 2026-05-05 13:06 | 48.07718 | -1.76787 | 1688 ft | 191 kts | 288° |
| 2026-05-05 13:07 | 48.07921 | -1.78864 | 2485 ft | 221 kts | 277° |
| 2026-05-05 13:07 | 48.07595 | -1.81267 | 2861 ft | 254 kts | 246° |
| 2026-05-05 13:07 | 48.06471 | -1.83307 | 3614 ft | 257 kts | 218° |
| 2026-05-05 13:07 | 48.04866 | -1.84619 | 4051 ft | 276 kts | 199° |
| 2026-05-05 13:08 | 48.03025 | -1.85639 | 5002 ft | 285 kts | 201° |
| 2026-05-05 13:08 | 48.01231 | -1.86953 | 6155 ft | 290 kts | 207° |
| 2026-05-05 13:08 | 47.99444 | -1.88356 | 7208 ft | 287 kts | 199° |
| 2026-05-05 13:08 | 47.97513 | -1.88810 | 8196 ft | 285 kts | 173° |
| 2026-05-05 13:09 | 47.95665 | -1.87743 | 8910 ft | 288 kts | 139° |
| 2026-05-05 13:09 | 47.94358 | -1.85523 | 9840 ft | 285 kts | 122° |
| 2026-05-05 13:09 | 47.93402 | -1.82916 | 10510 ft | 292 kts | 115° |
| 2026-05-05 13:09 | 47.92507 | -1.80066 | 10693 ft | 315 kts | 114° |
| 2026-05-05 13:10 | 47.91831 | -1.76858 | 10844 ft | 337 kts | 95° |
| 2026-05-05 13:10 | 47.92021 | -1.73289 | 11017 ft | 357 kts | 78° |
| 2026-05-05 13:10 | 47.92599 | -1.69598 | 11262 ft | 373 kts | 76° |
| 2026-05-05 13:10 | 47.93234 | -1.65807 | 11765 ft | 380 kts | 76° |
| 2026-05-05 13:11 | 47.93876 | -1.61976 | 12430 ft | 383 kts | 76° |
| 2026-05-05 13:11 | 47.94511 | -1.58104 | 13099 ft | 386 kts | 77° |
| 2026-05-05 13:11 | 47.95141 | -1.54181 | 13747 ft | 391 kts | 77° |
| 2026-05-05 13:11 | 47.95767 | -1.50223 | 14367 ft | 394 kts | 77° |
| 2026-05-05 13:12 | 47.96392 | -1.46236 | 15075 ft | 395 kts | 77° |
| 2026-05-05 13:12 | 47.97015 | -1.42233 | 15797 ft | 397 kts | 77° |
| 2026-05-05 13:12 | 47.97640 | -1.38208 | 16475 ft | 400 kts | 77° |
| 2026-05-05 13:12 | 47.98270 | -1.34151 | 17124 ft | 402 kts | 77° |
| 2026-05-05 13:13 | 47.98892 | -1.30128 | 17784 ft | 404 kts | 77° |
| 2026-05-05 13:13 | 47.99521 | -1.26021 | 18382 ft | 407 kts | 78° |
| 2026-05-05 13:13 | 47.99709 | -1.21813 | 18960 ft | 408 kts | 95° |
| 2026-05-05 13:13 | 47.99182 | -1.17650 | 19573 ft | 409 kts | 102° |
| 2026-05-05 13:14 | 47.98532 | -1.13493 | 20093 ft | 414 kts | 102° |
| 2026-05-05 13:14 | 47.97871 | -1.09291 | 20724 ft | 417 kts | 102° |
| 2026-05-05 13:14 | 47.97224 | -1.05037 | 21319 ft | 422 kts | 102° |
| 2026-05-05 13:14 | 47.96588 | -1.00740 | 21932 ft | 424 kts | 101° |
| 2026-05-05 13:15 | 47.95972 | -0.96433 | 22487 ft | 427 kts | 98° |
| 2026-05-05 13:15 | 47.95875 | -0.92016 | 22858 ft | 429 kts | 82° |
| 2026-05-05 13:15 | 47.96502 | -0.87653 | 23265 ft | 431 kts | 76° |
| 2026-05-05 13:15 | 47.97243 | -0.83303 | 23647 ft | 434 kts | 75° |
| 2026-05-05 13:16 | 47.97998 | -0.78935 | 24006 ft | 436 kts | 75° |
| 2026-05-05 13:16 | 47.98747 | -0.74542 | 24371 ft | 438 kts | 76° |
| 2026-05-05 13:16 | 47.99483 | -0.70129 | 24710 ft | 440 kts | 76° |
| 2026-05-05 13:16 | 48.00212 | -0.65680 | 25054 ft | 442 kts | 76° |
| 2026-05-05 13:17 | 48.00935 | -0.61211 | 25374 ft | 444 kts | 77° |
| 2026-05-05 13:17 | 48.01657 | -0.56720 | 25715 ft | 446 kts | 77° |
| 2026-05-05 13:17 | 48.02379 | -0.52209 | 26089 ft | 448 kts | 77° |
| 2026-05-05 13:17 | 48.03103 | -0.47677 | 26428 ft | 450 kts | 77° |
| 2026-05-05 13:18 | 48.03829 | -0.43122 | 26735 ft | 452 kts | 77° |
| 2026-05-05 13:18 | 48.04557 | -0.38547 | 27046 ft | 453 kts | 77° |
| 2026-05-05 13:18 | 48.05285 | -0.33962 | 27417 ft | 454 kts | 77° |
| 2026-05-05 13:18 | 48.06010 | -0.29386 | 27920 ft | 451 kts | 77° |
| 2026-05-05 13:19 | 48.06802 | -0.24865 | 28442 ft | 448 kts | 73° |
| 2026-05-05 13:19 | 48.07976 | -0.20556 | 28913 ft | 447 kts | 66° |
| 2026-05-05 13:19 | 48.09308 | -0.16360 | 29320 ft | 447 kts | 65° |
| 2026-05-05 13:19 | 48.10656 | -0.12178 | 29697 ft | 447 kts | 65° |
| 2026-05-05 13:20 | 48.12000 | -0.08002 | 30107 ft | 445 kts | 66° |
| 2026-05-05 13:20 | 48.13334 | -0.03823 | 30531 ft | 444 kts | 66° |
| 2026-05-05 13:20 | 48.14655 | 0.00354 | 30882 ft | 444 kts | 66° |
| 2026-05-05 13:20 | 48.15969 | 0.04541 | 31246 ft | 444 kts | 67° |
| 2026-05-05 13:21 | 48.17279 | 0.08735 | 31563 ft | 444 kts | 67° |
| 2026-05-05 13:21 | 48.18584 | 0.12928 | 31850 ft | 444 kts | 67° |
| 2026-05-05 13:21 | 48.21198 | 0.21358 | 31853 ft | 446 kts | 67° |
| 2026-05-05 13:22 | 48.23799 | 0.29771 | 31859 ft | 444 kts | 67° |
| 2026-05-05 13:22 | 48.26389 | 0.38174 | 31862 ft | 444 kts | 67° |
| 2026-05-05 13:23 | 48.28974 | 0.46588 | 31850 ft | 444 kts | 67° |
| 2026-05-05 13:23 | 48.31537 | 0.54959 | 31855 ft | 445 kts | 67° |
| 2026-05-05 13:24 | 48.34117 | 0.63416 | 31850 ft | 446 kts | 68° |
| 2026-05-05 13:24 | 48.36694 | 0.71890 | 31849 ft | 445 kts | 68° |
| 2026-05-05 13:25 | 48.39264 | 0.80369 | 31852 ft | 445 kts | 68° |
| 2026-05-05 13:25 | 48.41875 | 0.88837 | 31868 ft | 447 kts | 68° |
| 2026-05-05 13:26 | 48.44433 | 0.97409 | 31857 ft | 450 kts | 68° |
| 2026-05-05 13:26 | 48.46992 | 1.06027 | 31842 ft | 452 kts | 68° |
| 2026-05-05 13:27 | 48.49567 | 1.14669 | 31845 ft | 451 kts | 68° |
| 2026-05-05 13:27 | 48.52139 | 1.23302 | 31838 ft | 451 kts | 68° |
| 2026-05-05 13:28 | 48.54693 | 1.31907 | 31841 ft | 450 kts | 68° |
| 2026-05-05 13:28 | 48.57237 | 1.40509 | 31842 ft | 449 kts | 68° |
| 2026-05-05 13:29 | 48.59777 | 1.49130 | 31844 ft | 448 kts | 68° |
| 2026-05-05 13:29 | 48.62308 | 1.57747 | 31838 ft | 449 kts | 68° |
| 2026-05-05 13:30 | 48.64807 | 1.66377 | 31833 ft | 448 kts | 70° |
| 2026-05-05 13:30 | 48.66978 | 1.75110 | 31829 ft | 447 kts | 72° |
| 2026-05-05 13:31 | 48.69072 | 1.83954 | 31835 ft | 448 kts | 72° |
| 2026-05-05 13:31 | 48.71220 | 1.92886 | 31848 ft | 451 kts | 72° |
| 2026-05-05 13:32 | 48.73390 | 2.01851 | 31819 ft | 454 kts | 72° |
| 2026-05-05 13:32 | 48.75537 | 2.10834 | 31822 ft | 453 kts | 73° |
| 2026-05-05 13:33 | 48.77276 | 2.19966 | 31835 ft | 451 kts | 77° |
| 2026-05-05 13:33 | 48.78854 | 2.29150 | 31826 ft | 450 kts | 77° |
| 2026-05-05 13:34 | 48.80462 | 2.38339 | 31826 ft | 450 kts | 77° |
| 2026-05-05 13:34 | 48.82096 | 2.47530 | 31831 ft | 451 kts | 77° |
| 2026-05-05 13:35 | 48.83722 | 2.56694 | 31866 ft | 453 kts | 77° |
| 2026-05-05 13:35 | 48.85359 | 2.65973 | 31842 ft | 457 kts | 77° |
| 2026-05-05 13:36 | 48.86997 | 2.75309 | 31821 ft | 458 kts | 77° |
| 2026-05-05 13:36 | 48.88527 | 2.84069 | 31819 ft | 455 kts | 77° |
| 2026-05-05 13:37 | 48.90141 | 2.93342 | 31814 ft | 453 kts | 77° |
| 2026-05-05 13:37 | 48.91716 | 3.02451 | 31810 ft | 452 kts | 77° |
| 2026-05-05 13:38 | 48.93305 | 3.11697 | 31810 ft | 452 kts | 77° |
| 2026-05-05 13:38 | 48.94876 | 3.20883 | 31814 ft | 452 kts | 78° |
| 2026-05-05 13:39 | 48.96450 | 3.30140 | 31828 ft | 454 kts | 77° |
| 2026-05-05 13:39 | 48.98033 | 3.39497 | 31814 ft | 456 kts | 77° |
| 2026-05-05 13:40 | 48.99614 | 3.48888 | 31806 ft | 459 kts | 78° |
| 2026-05-05 13:40 | 49.01195 | 3.58328 | 31801 ft | 460 kts | 78° |
| 2026-05-05 13:41 | 49.02764 | 3.67753 | 31818 ft | 459 kts | 78° |
| 2026-05-05 13:41 | 49.04324 | 3.77170 | 31815 ft | 458 kts | 78° |
| 2026-05-05 13:42 | 49.05872 | 3.86576 | 31821 ft | 457 kts | 78° |
| 2026-05-05 13:42 | 49.07402 | 3.95917 | 31819 ft | 456 kts | 78° |
| 2026-05-05 13:43 | 49.08929 | 4.05294 | 31832 ft | 455 kts | 79° |
| 2026-05-05 13:43 | 49.10444 | 4.14656 | 31826 ft | 454 kts | 79° |
| 2026-05-05 13:44 | 49.11951 | 4.24013 | 31837 ft | 454 kts | 79° |
| 2026-05-05 13:44 | 49.13450 | 4.33369 | 31836 ft | 453 kts | 79° |
| 2026-05-05 13:45 | 49.15447 | 4.42513 | 31832 ft | 456 kts | 71° |
| 2026-05-05 13:45 | 49.17920 | 4.51451 | 31825 ft | 456 kts | 70° |
| 2026-05-05 13:46 | 49.20379 | 4.60400 | 31812 ft | 458 kts | 70° |
| 2026-05-05 13:46 | 49.22793 | 4.69409 | 31817 ft | 458 kts | 71° |
| 2026-05-05 13:47 | 49.25190 | 4.78455 | 31815 ft | 458 kts | 71° |
| 2026-05-05 13:47 | 49.27583 | 4.87528 | 31825 ft | 463 kts | 71° |
| 2026-05-05 13:48 | 49.29997 | 4.96706 | 31806 ft | 464 kts | 71° |
| 2026-05-05 13:48 | 49.32395 | 5.05844 | 31840 ft | 463 kts | 71° |
| 2026-05-05 13:49 | 49.34805 | 5.15019 | 31815 ft | 464 kts | 71° |
| 2026-05-05 13:49 | 49.37221 | 5.24082 | 31809 ft | 461 kts | 71° |
| 2026-05-05 13:50 | 49.39649 | 5.33212 | 31818 ft | 458 kts | 71° |
| 2026-05-05 13:50 | 49.42033 | 5.42239 | 31819 ft | 456 kts | 71° |
| 2026-05-05 13:51 | 49.44003 | 5.49737 | 31826 ft | 454 kts | 72° |
| 2026-05-05 13:51 | 49.46748 | 5.60222 | 31825 ft | 454 kts | 72° |
| 2026-05-05 13:52 | 49.48718 | 5.67771 | 31825 ft | 455 kts | 72° |
| 2026-05-05 13:52 | 49.52223 | 5.77764 | 31839 ft | 466 kts | 53° |
| 2026-05-05 13:53 | 49.56359 | 5.83267 | 31844 ft | 475 kts | 36° |
| 2026-05-05 13:53 | 49.61937 | 5.88712 | 31842 ft | 478 kts | 35° |
| 2026-05-05 13:54 | 49.67559 | 5.94228 | 31846 ft | 480 kts | 36° |
| 2026-05-05 13:54 | 49.73169 | 5.99869 | 31848 ft | 482 kts | 36° |
| 2026-05-05 13:55 | 49.78778 | 6.05560 | 31840 ft | 483 kts | 36° |
| 2026-05-05 13:55 | 49.84415 | 6.11284 | 31843 ft | 484 kts | 36° |
| 2026-05-05 13:56 | 49.90259 | 6.16515 | 31813 ft | 483 kts | 40° |
| 2026-05-05 13:56 | 49.92539 | 6.20247 | 31848 ft | 474 kts | 61° |
| 2026-05-05 13:56 | 49.93847 | 6.24852 | 31832 ft | 464 kts | 82° |
| 2026-05-05 13:57 | 49.94166 | 6.29763 | 31829 ft | 456 kts | 95° |
| 2026-05-05 13:57 | 49.93973 | 6.34658 | 31832 ft | 453 kts | 98° |
| 2026-05-05 13:57 | 49.93611 | 6.44438 | 31815 ft | 454 kts | 97° |
| 2026-05-05 13:58 | 49.93341 | 6.54211 | 31819 ft | 452 kts | 96° |
| 2026-05-05 13:58 | 49.93091 | 6.63966 | 31831 ft | 452 kts | 97° |
| 2026-05-05 13:59 | 49.92699 | 6.78573 | 31830 ft | 452 kts | 97° |
| 2026-05-05 14:00 | 49.92282 | 6.93152 | 31828 ft | 454 kts | 97° |
| 2026-05-05 14:00 | 49.91992 | 7.02945 | 31849 ft | 455 kts | 97° |
| 2026-05-05 14:01 | 49.91694 | 7.12750 | 31809 ft | 455 kts | 97° |
| 2026-05-05 14:01 | 49.91538 | 7.17690 | 31112 ft | 461 kts | 97° |
| 2026-05-05 14:01 | 49.91382 | 7.22640 | 30374 ft | 458 kts | 97° |
| 2026-05-05 14:02 | 49.91225 | 7.27573 | 29510 ft | 459 kts | 96° |
| 2026-05-05 14:02 | 49.91066 | 7.32506 | 28574 ft | 459 kts | 96° |
| 2026-05-05 14:02 | 49.90904 | 7.37457 | 27653 ft | 458 kts | 96° |
| 2026-05-05 14:02 | 49.90740 | 7.42385 | 26700 ft | 459 kts | 96° |
| 2026-05-05 14:03 | 49.90572 | 7.47359 | 25719 ft | 462 kts | 96° |
| 2026-05-05 14:03 | 49.90402 | 7.52346 | 24877 ft | 463 kts | 96° |
| 2026-05-05 14:03 | 49.90230 | 7.57318 | 24119 ft | 459 kts | 96° |
| 2026-05-05 14:03 | 49.90060 | 7.62243 | 23398 ft | 454 kts | 95° |
| 2026-05-05 14:04 | 49.89888 | 7.67110 | 22557 ft | 450 kts | 95° |
| 2026-05-05 14:04 | 49.89716 | 7.71928 | 21820 ft | 444 kts | 95° |
| 2026-05-05 14:04 | 49.89545 | 7.76672 | 21117 ft | 439 kts | 95° |
| 2026-05-05 14:04 | 49.89372 | 7.81381 | 20369 ft | 436 kts | 95° |
| 2026-05-05 14:05 | 49.89199 | 7.86042 | 19691 ft | 430 kts | 95° |
| 2026-05-05 14:05 | 49.89029 | 7.90597 | 19015 ft | 426 kts | 95° |
| 2026-05-05 14:05 | 49.88856 | 7.95157 | 18339 ft | 422 kts | 95° |
| 2026-05-05 14:05 | 49.88681 | 7.99735 | 17572 ft | 419 kts | 95° |
| 2026-05-05 14:06 | 49.88507 | 8.04222 | 16838 ft | 414 kts | 95° |
| 2026-05-05 14:06 | 49.88337 | 8.08597 | 16154 ft | 409 kts | 95° |
| 2026-05-05 14:06 | 49.88166 | 8.12967 | 15487 ft | 405 kts | 95° |
| 2026-05-05 14:06 | 49.87994 | 8.17301 | 14827 ft | 400 kts | 95° |
| 2026-05-05 14:07 | 49.87822 | 8.21589 | 14199 ft | 396 kts | 95° |
| 2026-05-05 14:07 | 49.87789 | 8.25838 | 13535 ft | 395 kts | 87° |
| 2026-05-05 14:07 | 49.88213 | 8.30022 | 12945 ft | 391 kts | 77° |
| 2026-05-05 14:07 | 49.89056 | 8.34009 | 12382 ft | 386 kts | 71° |
| 2026-05-05 14:08 | 49.90007 | 8.37872 | 11768 ft | 383 kts | 70° |
| 2026-05-05 14:08 | 49.90965 | 8.41718 | 11127 ft | 380 kts | 70° |
| 2026-05-05 14:08 | 49.91898 | 8.45484 | 10916 ft | 366 kts | 70° |
| 2026-05-05 14:08 | 49.92785 | 8.49098 | 10746 ft | 351 kts | 71° |
| 2026-05-05 14:09 | 49.93632 | 8.52579 | 10609 ft | 338 kts | 71° |
| 2026-05-05 14:09 | 49.94442 | 8.55936 | 10465 ft | 326 kts | 71° |
| 2026-05-05 14:09 | 49.95217 | 8.59163 | 10332 ft | 314 kts | 71° |
| 2026-05-05 14:09 | 49.95966 | 8.62292 | 10209 ft | 304 kts | 71° |
| 2026-05-05 14:10 | 49.96679 | 8.65277 | 10083 ft | 294 kts | 71° |
| 2026-05-05 14:10 | 49.97380 | 8.68216 | 9961 ft | 287 kts | 71° |
| 2026-05-05 14:10 | 49.98071 | 8.71123 | 9871 ft | 286 kts | 71° |
| 2026-05-05 14:10 | 49.98755 | 8.74000 | 9831 ft | 282 kts | 71° |
| 2026-05-05 14:11 | 49.99423 | 8.76810 | 9810 ft | 270 kts | 72° |
| 2026-05-05 14:11 | 50.00058 | 8.79484 | 9802 ft | 257 kts | 72° |
| 2026-05-05 14:11 | 50.00662 | 8.82033 | 9766 ft | 247 kts | 72° |
| 2026-05-05 14:11 | 50.01251 | 8.84526 | 9496 ft | 246 kts | 72° |
| 2026-05-05 14:12 | 50.01841 | 8.87025 | 9198 ft | 246 kts | 72° |
| 2026-05-05 14:12 | 50.02428 | 8.89515 | 8920 ft | 245 kts | 72° |
| 2026-05-05 14:12 | 50.03010 | 8.91983 | 8592 ft | 242 kts | 72° |
| 2026-05-05 14:12 | 50.03589 | 8.94444 | 8187 ft | 243 kts | 72° |
| 2026-05-05 14:13 | 50.04168 | 8.96904 | 7807 ft | 242 kts | 71° |
| 2026-05-05 14:13 | 50.04774 | 8.99343 | 7531 ft | 241 kts | 70° |
| 2026-05-05 14:13 | 50.05392 | 9.01760 | 7397 ft | 240 kts | 70° |
| 2026-05-05 14:13 | 50.06005 | 9.04176 | 7245 ft | 242 kts | 69° |
| 2026-05-05 14:14 | 50.06620 | 9.06613 | 7105 ft | 241 kts | 70° |
| 2026-05-05 14:14 | 50.07237 | 9.09020 | 6941 ft | 238 kts | 69° |
| 2026-05-05 14:14 | 50.07853 | 9.11412 | 6566 ft | 238 kts | 69° |
| 2026-05-05 14:14 | 50.08469 | 9.13801 | 6183 ft | 237 kts | 70° |
| 2026-05-05 14:15 | 50.09104 | 9.16167 | 5785 ft | 237 kts | 62° |
| 2026-05-05 14:15 | 50.10057 | 9.18253 | 5445 ft | 236 kts | 48° |
| 2026-05-05 14:15 | 50.11266 | 9.19969 | 5081 ft | 236 kts | 36° |
| 2026-05-05 14:15 | 50.12698 | 9.21292 | 4520 ft | 245 kts | 24° |
| 2026-05-05 14:16 | 50.14328 | 9.22087 | 4057 ft | 246 kts | 2° |
| 2026-05-05 14:16 | 50.15918 | 9.21431 | 3909 ft | 237 kts | 322° |
| 2026-05-05 14:16 | 50.16872 | 9.19402 | 3847 ft | 235 kts | 283° |
| 2026-05-05 14:16 | 50.16942 | 9.16788 | 3834 ft | 250 kts | 264° |
| 2026-05-05 14:17 | 50.16708 | 9.14101 | 3811 ft | 250 kts | 259° |
| 2026-05-05 14:17 | 50.16382 | 9.11425 | 3805 ft | 252 kts | 258° |
| 2026-05-05 14:17 | 50.15974 | 9.08798 | 3835 ft | 253 kts | 253° |
| 2026-05-05 14:17 | 50.15430 | 9.06160 | 3840 ft | 259 kts | 250° |
| 2026-05-05 14:18 | 50.14801 | 9.03450 | 3895 ft | 267 kts | 248° |
| 2026-05-05 14:18 | 50.14148 | 9.00773 | 3819 ft | 265 kts | 249° |
| 2026-05-05 14:18 | 50.13502 | 8.98130 | 3809 ft | 251 kts | 249° |
| 2026-05-05 14:18 | 50.12898 | 8.95641 | 3919 ft | 242 kts | 249° |
| 2026-05-05 14:19 | 50.12304 | 8.93189 | 3847 ft | 247 kts | 248° |
| 2026-05-05 14:19 | 50.11695 | 8.90656 | 3769 ft | 243 kts | 249° |
| 2026-05-05 14:19 | 50.11125 | 8.88303 | 3689 ft | 218 kts | 249° |
| 2026-05-05 14:19 | 50.10626 | 8.86235 | 3719 ft | 192 kts | 249° |
| 2026-05-05 14:20 | 50.10164 | 8.84322 | 3737 ft | 188 kts | 248° |
| 2026-05-05 14:20 | 50.09715 | 8.82460 | 3557 ft | 184 kts | 248° |
| 2026-05-05 14:20 | 50.09263 | 8.80585 | 3325 ft | 180 kts | 248° |
| 2026-05-05 14:20 | 50.08827 | 8.78774 | 3087 ft | 177 kts | 249° |
| 2026-05-05 14:21 | 50.08408 | 8.77030 | 2868 ft | 173 kts | 248° |
| 2026-05-05 14:21 | 50.07988 | 8.75285 | 2642 ft | 171 kts | 249° |
| 2026-05-05 14:21 | 50.07575 | 8.73563 | 2435 ft | 164 kts | 248° |
| 2026-05-05 14:21 | 50.07189 | 8.71956 | 2187 ft | 155 kts | 249° |
| 2026-05-05 14:22 | 50.06819 | 8.70413 | 1999 ft | 150 kts | 248° |
| 2026-05-05 14:22 | 50.06459 | 8.68912 | 1777 ft | 146 kts | 248° |
| 2026-05-05 14:22 | 50.06160 | 8.67395 | 1589 ft | 149 kts | 256° |
| 2026-05-05 14:22 | 50.05958 | 8.65829 | 1344 ft | 148 kts | 257° |
| 2026-05-05 14:23 | 50.05741 | 8.64259 | 1163 ft | 147 kts | 255° |
| 2026-05-05 14:23 | 50.05443 | 8.62742 | 948 ft | 147 kts | 251° |
| 2026-05-05 14:23 | 50.05109 | 8.61249 | 779 ft | 144 kts | 250° |
| 2026-05-05 14:23 | 50.04770 | 8.59822 | 585 ft | 139 kts | 249° |
| 2026-05-05 14:24 | 50.04450 | 8.58446 | 393 ft | 131 kts | 249° |
| 2026-05-05 14:24 | 50.04164 | 8.57239 | 369 ft | 100 kts | 250° |
| 2026-05-05 14:24 | 50.03975 | 8.56447 | 365 ft | 56 kts | 250° |
| 2026-05-05 14:24 | 50.03880 | 8.56015 | 368 ft | 31 kts | 262° |
| 2026-05-05 14:25 | 50.03896 | 8.55750 | 366 ft | 21 kts | 280° |
| 2026-05-05 14:25 | 50.03957 | 8.55620 | 368 ft | 14 kts | 25° |
| 2026-05-05 14:25 | 50.04001 | 8.55747 | 367 ft | 13 kts | 70° |
| 2026-05-05 14:25 | 50.04032 | 8.55880 | 368 ft | 13 kts | 70° |
| 2026-05-05 14:26 | 50.04063 | 8.56009 | 364 ft | 13 kts | 70° |
| 2026-05-05 14:26 | 50.04093 | 8.56134 | 363 ft | 12 kts | 70° |
| 2026-05-05 14:26 | 50.04122 | 8.56257 | 363 ft | 12 kts | 70° |
| 2026-05-05 14:26 | 50.04153 | 8.56384 | 366 ft | 13 kts | 70° |
| 2026-05-05 14:27 | 50.04184 | 8.56514 | 369 ft | 13 kts | 70° |
| 2026-05-05 14:27 | 50.04215 | 8.56644 | 366 ft | 13 kts | 69° |
| 2026-05-05 14:27 | 50.04244 | 8.56771 | 364 ft | 12 kts | 70° |
| 2026-05-05 14:27 | 50.04273 | 8.56895 | 367 ft | 12 kts | 70° |
| 2026-05-05 14:28 | 50.04302 | 8.57015 | 366 ft | 12 kts | 69° |
| 2026-05-05 14:28 | 50.04333 | 8.57144 | 365 ft | 13 kts | 69° |
| 2026-05-05 14:28 | 50.04365 | 8.57273 | 368 ft | 13 kts | 69° |
| 2026-05-05 14:28 | 50.04396 | 8.57399 | 368 ft | 10 kts | 69° |
| 2026-05-05 14:29 | 50.04421 | 8.57505 | 363 ft | 11 kts | 69° |
| 2026-05-05 14:29 | 50.04447 | 8.57616 | 367 ft | 11 kts | 70° |
| 2026-05-05 14:29 | 50.04474 | 8.57732 | 367 ft | 12 kts | 70° |
| 2026-05-05 14:29 | 50.04504 | 8.57859 | 366 ft | 13 kts | 70° |
| 2026-05-05 14:30 | 50.04536 | 8.57992 | 367 ft | 14 kts | 70° |
| 2026-05-05 14:30 | 50.04569 | 8.58134 | 366 ft | 14 kts | 70° |
| 2026-05-05 14:30 | 50.04606 | 8.58283 | 368 ft | 15 kts | 68° |
| 2026-05-05 14:30 | 50.04643 | 8.58431 | 365 ft | 15 kts | 69° |
| 2026-05-05 14:31 | 50.04681 | 8.58588 | 368 ft | 16 kts | 69° |
| 2026-05-05 14:31 | 50.04729 | 8.58744 | 369 ft | 14 kts | 39° |
| 2026-05-05 14:31 | 50.04810 | 8.58727 | 363 ft | 12 kts | 337° |
| 2026-05-05 14:31 | 50.04866 | 8.58693 | 366 ft | 0 kts | 339° |
| 2026-05-05 14:32 | 50.04868 | 8.58691 | 366 ft | 0 kts | 339° |
| 2026-05-05 14:32 | 50.04869 | 8.58691 | 366 ft | 1 kts | 340° |
| 2026-05-05 14:32 | 50.04895 | 8.58680 | 367 ft | 9 kts | 345° |
| 2026-05-05 14:32 | 50.04968 | 8.58739 | 366 ft | 16 kts | 73° |
| 2026-05-05 14:33 | 50.04999 | 8.58899 | 362 ft | 10 kts | 100° |
| 2026-05-05 14:33 | 50.04942 | 8.58934 | 366 ft | 9 kts | 161° |
| 2026-05-05 14:33 | 50.04932 | 8.58940 | 364 ft | 0 kts | 158° |